sensor_id;sensor_type;location;lat;lon;timestamp;pressure;altitude;pressure_sealevel;temperature;humidity
52975;BME280;38839;45.186;5.720;2023-02-19T00:01:15;100301.56;;;9.83;69.20
52975;BME280;38839;45.186;5.720;2023-02-19T00:03:42;100307.59;;;9.82;69.18
52975;BME280;38839;45.186;5.720;2023-02-19T00:06:09;100299.78;;;9.82;69.26
52975;BME280;38839;45.186;5.720;2023-02-19T00:08:36;100304.16;;;9.83;69.00
52975;BME280;38839;45.186;5.720;2023-02-19T00:11:08;100311.91;;;9.80;69.12
52975;BME280;38839;45.186;5.720;2023-02-19T00:13:38;100312.69;;;9.76;69.18
52975;BME280;38839;45.186;5.720;2023-02-19T00:18:45;100312.66;;;9.73;69.25
52975;BME280;38839;45.186;5.720;2023-02-19T00:21:11;100307.31;;;9.66;69.29
52975;BME280;38839;45.186;5.720;2023-02-19T00:23:37;100309.03;;;9.64;69.44
52975;BME280;38839;45.186;5.720;2023-02-19T00:26:03;100308.13;;;9.62;69.40
52975;BME280;38839;45.186;5.720;2023-02-19T00:28:29;100301.25;;;9.66;69.25
52975;BME280;38839;45.186;5.720;2023-02-19T00:30:54;100313.38;;;9.64;69.31
52975;BME280;38839;45.186;5.720;2023-02-19T00:33:20;100307.22;;;9.60;69.33
52975;BME280;38839;45.186;5.720;2023-02-19T00:35:45;100303.63;;;9.55;69.47
52975;BME280;38839;45.186;5.720;2023-02-19T00:38:10;100304.47;;;9.54;69.87
52975;BME280;38839;45.186;5.720;2023-02-19T00:40:37;100306.16;;;9.51;69.71
52975;BME280;38839;45.186;5.720;2023-02-19T00:43:02;100308.66;;;9.46;69.74
52975;BME280;38839;45.186;5.720;2023-02-19T00:45:28;100297.34;;;9.44;69.94
52975;BME280;38839;45.186;5.720;2023-02-19T00:47:53;100306.91;;;9.45;69.89
52975;BME280;38839;45.186;5.720;2023-02-19T00:50:19;100302.59;;;9.47;69.67
52975;BME280;38839;45.186;5.720;2023-02-19T00:52:44;100298.91;;;9.36;70.13
52975;BME280;38839;45.186;5.720;2023-02-19T00:55:10;100302.44;;;9.38;70.03
52975;BME280;38839;45.186;5.720;2023-02-19T00:57:35;100304.94;;;9.35;69.96
52975;BME280;38839;45.186;5.720;2023-02-19T01:00:00;100305.81;;;9.34;70.29
52975;BME280;38839;45.186;5.720;2023-02-19T01:02:26;100300.53;;;9.31;69.94
52975;BME280;38839;45.186;5.720;2023-02-19T01:04:51;100309.25;;;9.31;69.85
52975;BME280;38839;45.186;5.720;2023-02-19T01:07:17;100310.16;;;9.33;69.87
52975;BME280;38839;45.186;5.720;2023-02-19T01:09:43;100311.94;;;9.36;69.77
52975;BME280;38839;45.186;5.720;2023-02-19T01:12:08;100301.31;;;9.26;69.95
52975;BME280;38839;45.186;5.720;2023-02-19T01:14:34;100303.97;;;9.28;69.86
52975;BME280;38839;45.186;5.720;2023-02-19T01:17:00;100310.72;;;9.20;70.00
52975;BME280;38839;45.186;5.720;2023-02-19T01:19:25;100309.94;;;9.24;70.11
52975;BME280;38839;45.186;5.720;2023-02-19T01:21:50;100305.53;;;9.20;69.99
52975;BME280;38839;45.186;5.720;2023-02-19T01:24:16;100305.31;;;9.09;70.45
52975;BME280;38839;45.186;5.720;2023-02-19T01:26:41;100296.75;;;9.16;70.22
52975;BME280;38839;45.186;5.720;2023-02-19T01:29:07;100302.88;;;9.18;70.19
52975;BME280;38839;45.186;5.720;2023-02-19T01:31:33;100302.88;;;9.17;70.19
52975;BME280;38839;45.186;5.720;2023-02-19T01:34:00;100301.13;;;9.17;70.15
52975;BME280;38839;45.186;5.720;2023-02-19T01:36:28;100298.53;;;9.17;70.40
52975;BME280;38839;45.186;5.720;2023-02-19T01:38:54;100301.97;;;9.15;70.54
52975;BME280;38839;45.186;5.720;2023-02-19T01:41:24;100306.25;;;9.13;70.46
52975;BME280;38839;45.186;5.720;2023-02-19T01:46:30;100294.03;;;9.10;70.53
52975;BME280;38839;45.186;5.720;2023-02-19T01:49:04;100293.97;;;9.07;70.66
52975;BME280;38839;45.186;5.720;2023-02-19T01:51:32;100285.25;;;9.05;70.84
52975;BME280;38839;45.186;5.720;2023-02-19T01:54:00;100284.47;;;9.09;70.51
52975;BME280;38839;45.186;5.720;2023-02-19T01:56:27;100291.34;;;9.05;71.11
52975;BME280;38839;45.186;5.720;2023-02-19T01:58:55;100287.78;;;9.02;71.14
52975;BME280;38839;45.186;5.720;2023-02-19T02:01:22;100288.59;;;8.99;71.54
52975;BME280;38839;45.186;5.720;2023-02-19T02:03:48;100284.31;;;9.01;71.75
52975;BME280;38839;45.186;5.720;2023-02-19T02:06:19;100291.13;;;8.95;72.18
52975;BME280;38839;45.186;5.720;2023-02-19T02:08:47;100284.91;;;8.90;72.54
52975;BME280;38839;45.186;5.720;2023-02-19T02:11:32;100285.66;;;8.82;72.93
52975;BME280;38839;45.186;5.720;2023-02-19T02:13:57;100284.50;;;8.71;73.46
52975;BME280;38839;45.186;5.720;2023-02-19T02:19:51;100275.47;;;8.54;74.21
52975;BME280;38839;45.186;5.720;2023-02-19T02:22:41;100275.50;;;8.57;74.30
52975;BME280;38839;45.186;5.720;2023-02-19T02:30:31;100270.16;;;8.51;74.97
52975;BME280;38839;45.186;5.720;2023-02-19T02:33:13;100270.22;;;8.52;74.88
52975;BME280;38839;45.186;5.720;2023-02-19T02:35:53;100258.91;;;8.50;74.98
52975;BME280;38839;45.186;5.720;2023-02-19T02:38:23;100259.78;;;8.51;74.80
52975;BME280;38839;45.186;5.720;2023-02-19T02:40:50;100259.72;;;8.48;74.58
52975;BME280;38839;45.186;5.720;2023-02-19T02:43:16;100258.84;;;8.49;74.51
52975;BME280;38839;45.186;5.720;2023-02-19T02:45:42;100254.56;;;8.51;74.33
52975;BME280;38839;45.186;5.720;2023-02-19T02:50:57;100257.16;;;8.51;74.63
52975;BME280;38839;45.186;5.720;2023-02-19T02:56:46;100251.63;;;8.37;75.58
52975;BME280;38839;45.186;5.720;2023-02-19T02:59:15;100254.25;;;8.38;75.28
52975;BME280;38839;45.186;5.720;2023-02-19T03:01:55;100253.50;;;8.42;75.20
52975;BME280;38839;45.186;5.720;2023-02-19T03:07:25;100249.03;;;8.38;75.58
52975;BME280;38839;45.186;5.720;2023-02-19T03:09:52;100248.84;;;8.29;75.92
52975;BME280;38839;45.186;5.720;2023-02-19T03:12:20;100248.63;;;8.20;75.91
52975;BME280;38839;45.186;5.720;2023-02-19T03:15:08;100242.44;;;8.15;76.41
52975;BME280;38839;45.186;5.720;2023-02-19T03:17:58;100240.38;;;8.01;77.22
52975;BME280;38839;45.186;5.720;2023-02-19T03:20:44;100238.53;;;7.97;77.84
52975;BME280;38839;45.186;5.720;2023-02-19T03:23:11;100238.53;;;7.96;77.20
52975;BME280;38839;45.186;5.720;2023-02-19T03:25:39;100236.66;;;7.90;76.95
52975;BME280;38839;45.186;5.720;2023-02-19T03:28:27;100230.41;;;7.83;77.71
52975;BME280;38839;45.186;5.720;2023-02-19T03:31:17;100229.34;;;7.75;77.84
52975;BME280;38839;45.186;5.720;2023-02-19T03:33:46;100227.53;;;7.73;77.80
52975;BME280;38839;45.186;5.720;2023-02-19T03:36:13;100223.19;;;7.72;78.31
52975;BME280;38839;45.186;5.720;2023-02-19T03:38:47;100219.56;;;7.66;77.92
52975;BME280;38839;45.186;5.720;2023-02-19T03:44:15;100230.56;;;7.56;78.21
52975;BME280;38839;45.186;5.720;2023-02-19T03:46:52;100227.97;;;7.56;78.33
52975;BME280;38839;45.186;5.720;2023-02-19T03:49:40;100237.53;;;7.57;78.55
52975;BME280;38839;45.186;5.720;2023-02-19T03:54:50;100236.63;;;7.55;78.00
52975;BME280;38839;45.186;5.720;2023-02-19T03:57:25;100236.03;;;7.65;77.77
52975;BME280;38839;45.186;5.720;2023-02-19T04:00:03;100228.28;;;7.69;77.58
52975;BME280;38839;45.186;5.720;2023-02-19T04:02:41;100231.75;;;7.68;77.77
52975;BME280;38839;45.186;5.720;2023-02-19T04:05:36;100227.34;;;7.65;78.17
52975;BME280;38839;45.186;5.720;2023-02-19T04:08:10;100234.22;;;7.63;77.51
52975;BME280;38839;45.186;5.720;2023-02-19T04:10:36;100242.78;;;7.60;77.63
52975;BME280;38839;45.186;5.720;2023-02-19T04:13:07;100235.59;;;7.50;78.71
52975;BME280;38839;45.186;5.720;2023-02-19T04:15:35;100239.84;;;7.47;78.68
52975;BME280;38839;45.186;5.720;2023-02-19T04:18:08;100247.31;;;7.36;79.21
52975;BME280;38839;45.186;5.720;2023-02-19T04:20:43;100243.97;;;7.40;78.98
52975;BME280;38839;45.186;5.720;2023-02-19T04:23:10;100231.75;;;7.34;79.21
52975;BME280;38839;45.186;5.720;2023-02-19T04:25:38;100243.81;;;7.34;79.17
52975;BME280;38839;45.186;5.720;2023-02-19T04:28:07;100240.13;;;7.25;79.58
52975;BME280;38839;45.186;5.720;2023-02-19T04:30:32;100250.56;;;7.27;79.82
52975;BME280;38839;45.186;5.720;2023-02-19T04:32:58;100242.66;;;7.22;80.24
52975;BME280;38839;45.186;5.720;2023-02-19T04:35:23;100248.72;;;7.23;80.14
52975;BME280;38839;45.186;5.720;2023-02-19T04:37:49;100246.16;;;7.24;79.88
52975;BME280;38839;45.186;5.720;2023-02-19T04:40:14;100243.63;;;7.26;80.27
52975;BME280;38839;45.186;5.720;2023-02-19T04:42:39;100254.06;;;7.29;79.91
52975;BME280;38839;45.186;5.720;2023-02-19T04:45:05;100240.44;;;7.36;79.47
52975;BME280;38839;45.186;5.720;2023-02-19T04:47:31;100241.94;;;7.28;79.68
52975;BME280;38839;45.186;5.720;2023-02-19T04:49:57;100244.56;;;7.30;79.74
52975;BME280;38839;45.186;5.720;2023-02-19T04:52:22;100243.63;;;7.26;79.75
52975;BME280;38839;45.186;5.720;2023-02-19T04:54:48;100241.84;;;7.25;80.04
52975;BME280;38839;45.186;5.720;2023-02-19T04:57:13;100243.47;;;7.21;79.98
52975;BME280;38839;45.186;5.720;2023-02-19T04:59:39;100246.06;;;7.21;79.92
52975;BME280;38839;45.186;5.720;2023-02-19T05:02:04;100248.72;;;7.23;79.72
52975;BME280;38839;45.186;5.720;2023-02-19T05:04:30;100245.16;;;7.19;79.60
52975;BME280;38839;45.186;5.720;2023-02-19T05:06:55;100242.53;;;7.18;79.48
52975;BME280;38839;45.186;5.720;2023-02-19T05:09:20;100239.13;;;7.20;79.48
52975;BME280;38839;45.186;5.720;2023-02-19T05:11:46;100236.53;;;7.20;79.47
52975;BME280;38839;45.186;5.720;2023-02-19T05:14:12;100239.75;;;7.12;79.99
52975;BME280;38839;45.186;5.720;2023-02-19T05:16:37;100236.25;;;7.10;79.99
52975;BME280;38839;45.186;5.720;2023-02-19T05:19:03;100236.09;;;7.05;79.84
52975;BME280;38839;45.186;5.720;2023-02-19T05:21:28;100231.94;;;7.10;79.64
52975;BME280;38839;45.186;5.720;2023-02-19T05:23:53;100234.56;;;7.12;79.59
52975;BME280;38839;45.186;5.720;2023-02-19T05:26:21;100233.59;;;7.08;79.45
52975;BME280;38839;45.186;5.720;2023-02-19T05:28:49;100233.50;;;7.05;79.59
52975;BME280;38839;45.186;5.720;2023-02-19T05:31:15;100230.16;;;7.09;79.51
52975;BME280;38839;45.186;5.720;2023-02-19T05:33:41;100231.81;;;7.07;78.99
52975;BME280;38839;45.186;5.720;2023-02-19T05:36:12;100240.00;;;6.91;79.74
52975;BME280;38839;45.186;5.720;2023-02-19T05:38:39;100239.19;;;6.92;80.48
52975;BME280;38839;45.186;5.720;2023-02-19T05:43:40;100233.31;;;6.99;80.06
52975;BME280;38839;45.186;5.720;2023-02-19T05:46:06;100233.50;;;7.05;79.83
52975;BME280;38839;45.186;5.720;2023-02-19T05:48:33;100239.59;;;7.07;79.78
52975;BME280;38839;45.186;5.720;2023-02-19T05:51:08;100244.84;;;7.09;79.89
52975;BME280;38839;45.186;5.720;2023-02-19T05:53:34;100248.38;;;7.11;79.75
52975;BME280;38839;45.186;5.720;2023-02-19T05:56:00;100256.09;;;7.09;79.60
52975;BME280;38839;45.186;5.720;2023-02-19T05:58:26;100257.88;;;7.10;79.75
52975;BME280;38839;45.186;5.720;2023-02-19T06:00:52;100258.91;;;7.17;79.62
52975;BME280;38839;45.186;5.720;2023-02-19T06:03:17;100253.78;;;7.18;79.48
52975;BME280;38839;45.186;5.720;2023-02-19T06:05:43;100250.22;;;7.15;79.60
52975;BME280;38839;45.186;5.720;2023-02-19T06:08:12;100249.41;;;7.17;79.39
52975;BME280;38839;45.186;5.720;2023-02-19T06:10:37;100251.94;;;7.14;79.78
52975;BME280;38839;45.186;5.720;2023-02-19T06:13:05;100250.84;;;7.06;79.85
52975;BME280;38839;45.186;5.720;2023-02-19T06:15:31;100249.25;;;7.11;79.66
52975;BME280;38839;45.186;5.720;2023-02-19T06:17:56;100251.19;;;7.18;78.94
52975;BME280;38839;45.186;5.720;2023-02-19T06:20:21;100261.91;;;7.31;78.57
52975;BME280;38839;45.186;5.720;2023-02-19T06:22:49;100263.75;;;7.35;78.28
52975;BME280;38839;45.186;5.720;2023-02-19T06:25:14;100262.88;;;7.34;77.69
52975;BME280;38839;45.186;5.720;2023-02-19T06:27:39;100262.25;;;7.43;77.82
52975;BME280;38839;45.186;5.720;2023-02-19T06:30:05;100274.38;;;7.44;77.50
52975;BME280;38839;45.186;5.720;2023-02-19T06:32:31;100270.28;;;7.20;78.53
52975;BME280;38839;45.186;5.720;2023-02-19T06:34:56;100269.59;;;7.28;77.99
52975;BME280;38839;45.186;5.720;2023-02-19T06:37:21;100270.03;;;6.82;78.96
52975;BME280;38839;45.186;5.720;2023-02-19T06:39:47;100268.00;;;6.72;79.43
52975;BME280;38839;45.186;5.720;2023-02-19T06:42:12;100281.06;;;6.75;79.14
52975;BME280;38839;45.186;5.720;2023-02-19T06:44:37;100284.47;;;6.74;79.88
52975;BME280;38839;45.186;5.720;2023-02-19T06:47:03;100281.81;;;6.71;80.37
52975;BME280;38839;45.186;5.720;2023-02-19T06:49:28;100276.69;;;6.74;80.09
52975;BME280;38839;45.186;5.720;2023-02-19T06:51:54;100277.53;;;6.73;80.01
52975;BME280;38839;45.186;5.720;2023-02-19T06:54:19;100288.97;;;6.80;80.21
52975;BME280;38839;45.186;5.720;2023-02-19T06:56:44;100287.44;;;6.87;79.46
52975;BME280;38839;45.186;5.720;2023-02-19T06:59:14;100286.69;;;6.91;79.19
52975;BME280;38839;45.186;5.720;2023-02-19T07:01:44;100290.03;;;6.87;79.85
52975;BME280;38839;45.186;5.720;2023-02-19T07:04:10;100281.44;;;6.88;80.01
52975;BME280;38839;45.186;5.720;2023-02-19T07:06:36;100283.09;;;6.85;79.83
52975;BME280;38839;45.186;5.720;2023-02-19T07:09:03;100280.63;;;6.90;79.76
52975;BME280;38839;45.186;5.720;2023-02-19T07:11:31;100285.25;;;7.00;79.49
52975;BME280;38839;45.186;5.720;2023-02-19T07:13:58;100277.34;;;6.96;79.37
52975;BME280;38839;45.186;5.720;2023-02-19T07:16:24;100269.75;;;7.02;79.70
52975;BME280;38839;45.186;5.720;2023-02-19T07:18:49;100274.13;;;7.04;79.26
52975;BME280;38839;45.186;5.720;2023-02-19T07:21:15;100269.75;;;7.02;79.22
52975;BME280;38839;45.186;5.720;2023-02-19T07:23:41;100277.72;;;7.08;78.71
52975;BME280;38839;45.186;5.720;2023-02-19T07:26:09;100267.22;;;7.03;78.51
52975;BME280;38839;45.186;5.720;2023-02-19T07:28:35;100279.31;;;7.04;78.50
52975;BME280;38839;45.186;5.720;2023-02-19T07:31:02;100287.34;;;7.12;78.19
52975;BME280;38839;45.186;5.720;2023-02-19T07:33:27;100282.06;;;7.09;78.13
52975;BME280;38839;45.186;5.720;2023-02-19T07:35:53;100276.78;;;7.06;78.15
52975;BME280;38839;45.186;5.720;2023-02-19T07:38:20;100279.16;;;6.98;78.37
52975;BME280;38839;45.186;5.720;2023-02-19T07:40:53;100289.66;;;6.74;79.29
52975;BME280;38839;45.186;5.720;2023-02-19T07:43:19;100286.50;;;6.83;79.09
52975;BME280;38839;45.186;5.720;2023-02-19T07:45:44;100290.50;;;7.02;78.35
52975;BME280;38839;45.186;5.720;2023-02-19T07:48:10;100296.97;;;7.16;78.03
52975;BME280;38839;45.186;5.720;2023-02-19T07:50:36;100302.41;;;7.25;77.54
52975;BME280;38839;45.186;5.720;2023-02-19T07:53:01;100314.00;;;7.37;77.23
52975;BME280;38839;45.186;5.720;2023-02-19T07:55:26;100314.94;;;7.39;76.83
52975;BME280;38839;45.186;5.720;2023-02-19T07:57:52;100325.22;;;7.36;77.07
52975;BME280;38839;45.186;5.720;2023-02-19T08:00:17;100326.13;;;7.38;76.77
52975;BME280;38839;45.186;5.720;2023-02-19T08:02:44;100327.72;;;7.33;76.98
52975;BME280;38839;45.186;5.720;2023-02-19T08:05:29;100328.94;;;7.15;77.81
52975;BME280;38839;45.186;5.720;2023-02-19T08:07:56;100320.03;;;7.07;78.18
52975;BME280;38839;45.186;5.720;2023-02-19T08:10:21;100330.22;;;7.30;77.71
52975;BME280;38839;45.186;5.720;2023-02-19T08:13:08;100323.97;;;7.23;77.59
52975;BME280;38839;45.186;5.720;2023-02-19T08:15:55;100329.75;;;7.43;77.34
52975;BME280;38839;45.186;5.720;2023-02-19T08:18:26;100332.59;;;7.52;76.90
52975;BME280;38839;45.186;5.720;2023-02-19T08:20:53;100330.09;;;7.55;76.46
52975;BME280;38839;45.186;5.720;2023-02-19T08:23:19;100328.50;;;7.60;76.57
52975;BME280;38839;45.186;5.720;2023-02-19T08:25:48;100327.69;;;7.95;75.54
52975;BME280;38839;45.186;5.720;2023-02-19T08:28:14;100325.66;;;8.16;74.59
52975;BME280;38839;45.186;5.720;2023-02-19T08:30:41;100326.94;;;8.34;73.98
52975;BME280;38839;45.186;5.720;2023-02-19T08:33:09;100330.63;;;8.07;74.84
52975;BME280;38839;45.186;5.720;2023-02-19T08:35:36;100323.47;;;8.33;73.93
52975;BME280;38839;45.186;5.720;2023-02-19T08:38:02;100327.81;;;8.68;73.11
52975;BME280;38839;45.186;5.720;2023-02-19T08:40:28;100333.25;;;8.78;72.26
52975;BME280;38839;45.186;5.720;2023-02-19T08:42:53;100331.06;;;8.59;72.82
52975;BME280;38839;45.186;5.720;2023-02-19T08:45:19;100336.09;;;8.53;73.00
52975;BME280;38839;45.186;5.720;2023-02-19T08:47:45;100336.78;;;8.80;72.11
52975;BME280;38839;45.186;5.720;2023-02-19T08:50:11;100336.47;;;9.06;71.19
52975;BME280;38839;45.186;5.720;2023-02-19T08:52:36;100341.66;;;9.04;71.42
52975;BME280;38839;45.186;5.720;2023-02-19T08:55:04;100350.00;;;9.31;70.45
52975;BME280;38839;45.186;5.720;2023-02-19T08:57:29;100354.94;;;9.58;69.64
52975;BME280;38839;45.186;5.720;2023-02-19T08:59:55;100350.38;;;9.49;69.21
52975;BME280;38839;45.186;5.720;2023-02-19T09:02:24;100353.91;;;9.51;68.61
52975;BME280;38839;45.186;5.720;2023-02-19T09:04:50;100358.44;;;9.60;68.47
52975;BME280;38839;45.186;5.720;2023-02-19T09:07:16;100352.16;;;9.50;68.89
52975;BME280;38839;45.186;5.720;2023-02-19T09:09:41;100357.56;;;10.05;67.51
52975;BME280;38839;45.186;5.720;2023-02-19T09:12:09;100360.94;;;10.46;66.39
52975;BME280;38839;45.186;5.720;2023-02-19T09:14:35;100357.38;;;10.43;66.04
52975;BME280;38839;45.186;5.720;2023-02-19T09:17:02;100346.91;;;10.96;64.82
52975;BME280;38839;45.186;5.720;2023-02-19T09:19:28;100350.16;;;11.44;63.51
52975;BME280;38839;45.186;5.720;2023-02-19T09:21:53;100353.53;;;11.35;63.56
52975;BME280;38839;45.186;5.720;2023-02-19T09:24:19;100345.84;;;11.47;63.40
52975;BME280;38839;45.186;5.720;2023-02-19T09:26:48;100350.59;;;11.79;62.59
52975;BME280;38839;45.186;5.720;2023-02-19T09:29:14;100349.09;;;12.00;61.89
52975;BME280;38839;45.186;5.720;2023-02-19T09:31:39;100342.19;;;12.06;61.60
52975;BME280;38839;45.186;5.720;2023-02-19T09:34:04;100343.78;;;11.95;61.42
52975;BME280;38839;45.186;5.720;2023-02-19T09:36:30;100350.78;;;11.96;61.56
52975;BME280;38839;45.186;5.720;2023-02-19T09:38:58;100342.13;;;12.03;61.41
52975;BME280;38839;45.186;5.720;2023-02-19T09:41:32;100346.56;;;12.11;60.04
52975;BME280;38839;45.186;5.720;2023-02-19T09:43:59;100333.44;;;12.07;60.89
52975;BME280;38839;45.186;5.720;2023-02-19T09:46:30;100331.66;;;12.00;60.58
52975;BME280;38839;45.186;5.720;2023-02-19T09:49:12;100335.34;;;12.21;59.92
52975;BME280;38839;45.186;5.720;2023-02-19T09:51:41;100338.63;;;12.01;59.83
52975;BME280;38839;45.186;5.720;2023-02-19T09:54:19;100346.19;;;11.78;60.19
52975;BME280;38839;45.186;5.720;2023-02-19T09:56:46;100334.06;;;11.85;60.34
52975;BME280;38839;45.186;5.720;2023-02-19T09:59:21;100339.44;;;11.94;59.95
52975;BME280;38839;45.186;5.720;2023-02-19T10:01:53;100336.78;;;11.91;60.21
52975;BME280;38839;45.186;5.720;2023-02-19T10:04:21;100332.63;;;12.10;59.98
52975;BME280;38839;45.186;5.720;2023-02-19T10:06:47;100328.16;;;12.00;59.81
52975;BME280;38839;45.186;5.720;2023-02-19T10:09:24;100323.81;;;12.03;59.87
52975;BME280;38839;45.186;5.720;2023-02-19T10:11:52;100332.41;;;11.88;59.89
52975;BME280;38839;45.186;5.720;2023-02-19T10:14:25;100329.81;;;11.90;59.86
52975;BME280;38839;45.186;5.720;2023-02-19T10:16:53;100326.16;;;11.79;60.54
52975;BME280;38839;45.186;5.720;2023-02-19T10:19:30;100321.69;;;11.67;59.99
52975;BME280;38839;45.186;5.720;2023-02-19T10:22:01;100315.28;;;11.42;60.67
52975;BME280;38839;45.186;5.720;2023-02-19T10:24:56;100312.38;;;11.19;60.21
52975;BME280;38839;45.186;5.720;2023-02-19T10:29:15;100303.28;;;10.87;60.88
52975;BME280;38839;45.186;5.720;2023-02-19T10:31:20;100315.53;;;10.93;60.82
52975;BME280;38839;45.186;5.720;2023-02-19T10:33:55;100312.28;;;11.10;60.72
52975;BME280;38839;45.186;5.720;2023-02-19T10:36:32;100299.44;;;11.30;59.95
52975;BME280;38839;45.186;5.720;2023-02-19T10:39:04;100304.59;;;11.23;59.20
52975;BME280;38839;45.186;5.720;2023-02-19T10:41:32;100307.88;;;11.07;58.36
52975;BME280;38839;45.186;5.720;2023-02-19T10:44:09;100304.38;;;11.05;59.19
52975;BME280;38839;45.186;5.720;2023-02-19T10:46:44;100298.31;;;11.09;57.11
52975;BME280;38839;45.186;5.720;2023-02-19T10:51:56;100283.84;;;11.33;57.92
52975;BME280;38839;45.186;5.720;2023-02-19T10:54:30;100287.41;;;11.41;57.53
52975;BME280;38839;45.186;5.720;2023-02-19T11:02:40;100281.34;;;11.43;57.43
52975;BME280;38839;45.186;5.720;2023-02-19T11:05:16;100269.34;;;11.62;57.01
52975;BME280;38839;45.186;5.720;2023-02-19T11:07:55;100272.06;;;11.72;57.09
52975;BME280;38839;45.186;5.720;2023-02-19T11:10:37;100272.19;;;11.87;56.84
52975;BME280;38839;45.186;5.720;2023-02-19T11:13:05;100271.41;;;11.90;57.27
52975;BME280;38839;45.186;5.720;2023-02-19T11:15:34;100274.06;;;11.97;57.32
52975;BME280;38839;45.186;5.720;2023-02-19T11:20:27;100253.50;;;12.37;56.88
52975;BME280;38839;45.186;5.720;2023-02-19T11:22:57;100251.75;;;12.42;56.73
52975;BME280;38839;45.186;5.720;2023-02-19T11:25:24;100259.63;;;12.41;56.29
52975;BME280;38839;45.186;5.720;2023-02-19T11:27:59;100255.25;;;12.41;56.76
52975;BME280;38839;45.186;5.720;2023-02-19T11:30:41;100242.31;;;12.61;58.35
52975;BME280;38839;45.186;5.720;2023-02-19T11:35:47;100260.63;;;12.60;56.23
52975;BME280;38839;45.186;5.720;2023-02-19T11:38:15;100239.78;;;12.81;57.16
52975;BME280;38839;45.186;5.720;2023-02-19T11:46:54;100245.28;;;13.34;55.81
52975;BME280;38839;45.186;5.720;2023-02-19T11:49:41;100243.47;;;13.25;55.53
52975;BME280;38839;45.186;5.720;2023-02-19T11:52:34;100238.31;;;13.45;56.42
52975;BME280;38839;45.186;5.720;2023-02-19T12:01:11;100222.66;;;13.73;55.70
52975;BME280;38839;45.186;5.720;2023-02-19T12:06:54;100220.03;;;13.91;54.81
52975;BME280;38839;45.186;5.720;2023-02-19T12:09:52;100219.16;;;13.91;54.81
52975;BME280;38839;45.186;5.720;2023-02-19T12:12:51;100213.91;;;14.04;54.51
52975;BME280;38839;45.186;5.720;2023-02-19T12:15:28;100198.16;;;14.14;54.66
52975;BME280;38839;45.186;5.720;2023-02-19T12:26:19;100193.78;;;14.23;54.94
52975;BME280;38839;45.186;5.720;2023-02-19T12:28:52;100191.16;;;14.19;55.17
52975;BME280;38839;45.186;5.720;2023-02-19T12:31:39;100185.91;;;14.22;55.39
52975;BME280;38839;45.186;5.720;2023-02-19T12:44:57;100157.91;;;14.08;55.94
52975;BME280;38839;45.186;5.720;2023-02-19T12:47:31;100143.94;;;14.09;55.64
52975;BME280;38839;45.186;5.720;2023-02-19T12:50:23;100158.81;;;14.06;56.00
52975;BME280;38839;45.186;5.720;2023-02-19T12:52:52;100150.06;;;14.13;55.93
52975;BME280;38839;45.186;5.720;2023-02-19T12:55:26;100138.66;;;14.13;56.06
52975;BME280;38839;45.186;5.720;2023-02-19T12:57:54;100133.41;;;14.22;55.86
52975;BME280;38839;45.186;5.720;2023-02-19T13:00:29;100144.78;;;14.22;55.96
52975;BME280;38839;45.186;5.720;2023-02-19T13:03:02;100150.06;;;14.19;55.97
52975;BME280;38839;45.186;5.720;2023-02-19T13:05:52;100148.28;;;14.27;55.91
52975;BME280;38839;45.186;5.720;2023-02-19T13:08:31;100131.66;;;14.30;55.63
52975;BME280;38839;45.186;5.720;2023-02-19T13:11:05;100136.03;;;14.29;55.89
52975;BME280;38839;45.186;5.720;2023-02-19T13:13:52;100125.56;;;14.23;55.98
52975;BME280;38839;45.186;5.720;2023-02-19T13:16:20;100126.41;;;14.27;56.03
52975;BME280;38839;45.186;5.720;2023-02-19T13:18:55;100115.91;;;14.30;56.01
52975;BME280;38839;45.186;5.720;2023-02-19T13:21:27;100119.41;;;14.24;56.17
52975;BME280;38839;45.186;5.720;2023-02-19T13:24:19;100111.50;;;14.37;56.04
52975;BME280;38839;45.186;5.720;2023-02-19T13:27:12;100108.84;;;14.46;55.83
52975;BME280;38839;45.186;5.720;2023-02-19T13:37:52;100098.38;;;14.38;56.21
52975;BME280;38839;45.186;5.720;2023-02-19T13:40:36;100101.88;;;14.31;56.52
52975;BME280;38839;45.186;5.720;2023-02-19T13:43:05;100087.91;;;14.32;56.69
52975;BME280;38839;45.186;5.720;2023-02-19T13:45:42;100082.63;;;14.35;56.64
52975;BME280;38839;45.186;5.720;2023-02-19T13:48:34;100093.09;;;14.41;56.72
52975;BME280;38839;45.186;5.720;2023-02-19T14:19:54;100080.06;;;14.21;57.97
52975;BME280;38839;45.186;5.720;2023-02-19T14:27:50;100089.69;;;14.16;57.95
52975;BME280;38839;45.186;5.720;2023-02-19T14:30:16;100079.25;;;13.99;58.83
52975;BME280;38839;45.186;5.720;2023-02-19T14:32:42;100087.13;;;13.99;58.85
52975;BME280;38839;45.186;5.720;2023-02-19T14:35:18;100080.97;;;14.03;58.77
52975;BME280;38839;45.186;5.720;2023-02-19T14:37:45;100089.72;;;13.96;59.30
52975;BME280;38839;45.186;5.720;2023-02-19T14:40:21;100097.63;;;14.01;59.17
52975;BME280;38839;45.186;5.720;2023-02-19T14:42:50;100082.75;;;13.97;59.38
52975;BME280;38839;45.186;5.720;2023-02-19T14:45:18;100075.78;;;13.85;59.97
52975;BME280;38839;45.186;5.720;2023-02-19T14:47:45;100060.03;;;13.85;59.63
52975;BME280;38839;45.186;5.720;2023-02-19T14:50:17;100077.53;;;13.78;60.12
52975;BME280;38839;45.186;5.720;2023-02-19T14:52:48;100053.94;;;13.84;59.90
52975;BME280;38839;45.186;5.720;2023-02-19T14:55:32;100073.16;;;13.76;60.43
52975;BME280;38839;45.186;5.720;2023-02-19T14:58:03;100068.78;;;13.72;60.22
52975;BME280;38839;45.186;5.720;2023-02-19T15:00:38;100061.81;;;13.60;60.58
52975;BME280;38839;45.186;5.720;2023-02-19T15:03:20;100056.56;;;13.67;60.70
52975;BME280;38839;45.186;5.720;2023-02-19T15:05:53;100050.44;;;13.72;60.40
52975;BME280;38839;45.186;5.720;2023-02-19T15:08:26;100055.69;;;13.67;60.51
52975;BME280;38839;45.186;5.720;2023-02-19T15:10:52;100050.44;;;13.61;60.74
52975;BME280;38839;45.186;5.720;2023-02-19T15:13:23;100055.69;;;13.61;60.70
52975;BME280;38839;45.186;5.720;2023-02-19T15:15:52;100048.69;;;13.64;60.67